This is the latest recevied weather packets stored in our database for station/object OK5TVR-5. If no packets are shown the sender has not sent any weather packets the latest 10 day(s).
| Time | Temp. | Humidity | Pressure | Rain* | Wind** | Luminosity | Snow |
|---|---|---|---|---|---|---|---|
| 1777407417 | 10° C | 48% | 1015.7 hPa | 0 mm | - | - | - |
| 1777406515 | 10.56° C | 47% | 1015.7 hPa | 0 mm | - | - | - |
| 1777405616 | 11.11° C | 46% | 1015.6 hPa | 0 mm | - | - | - |
| 1777404713 | 11.67° C | 47% | 1015.6 hPa | 0 mm | - | - | - |
| 1777403812 | 11.67° C | 46% | 1014.5 hPa | 0 mm | - | - | - |
| 1777402912 | 12.22° C | 45% | 1014.4 hPa | 0 mm | - | - | - |
| 1777401111 | 12.78° C | 47% | 1014.3 hPa | 0 mm | - | - | - |
| 1777401111 | 12.78° C | 47% | 1014.3 hPa | 0 mm | - | - | - |
| 1777400209 | 13.33° C | 44% | 1013.2 hPa | 0 mm | - | - | - |
| 1777399306 | 13.89° C | 43% | 1013.1 hPa | 0 mm | - | - | - |
| 1777398405 | 14.44° C | 42% | 1013.1 hPa | 0 mm | - | - | - |
| 1777397503 | 15.56° C | 40% | 1013 hPa | 0 mm | - | - | - |
| 1777396603 | 16.67° C | 38% | 1012.8 hPa | 0 mm | - | - | - |
| 1777396602 | 16.67° C | - | - | - | - | - | - |
| 1777395700 | 18.33° C | 32% | 1011.6 hPa | 0 mm | - | - | - |
| 1777394799 | 18.33° C | 31% | 1011.5 hPa | 0 mm | - | - | - |
| 1777393898 | 18.33° C | 30% | 1011.5 hPa | 0 mm | - | - | - |
| 1777392998 | 18.89° C | 30% | 1011.5 hPa | 0 mm | - | - | - |
| 1777392097 | 19.44° C | 28% | 1011.4 hPa | 0 mm | - | - | - |
| 1777391197 | 19.44° C | 26% | 1011.4 hPa | 0 mm | - | - | - |
| 1777390295 | 20° C | 29% | 1011.4 hPa | 0 mm | - | - | - |
| 1777389393 | 20° C | 25% | 1011.4 hPa | 0 mm | - | - | - |
| 1777387590 | 20° C | 27% | 1011.4 hPa | 0 mm | - | 118 W/m² | - |
| 1777386688 | 20.56° C | 27% | 1011.2 hPa | 0 mm | - | 133 W/m² | - |
| 1777385789 | 20.56° C | 29% | 1011.3 hPa | 0 mm | - | 150 W/m² | - |
* Rain latest hour (hover to see other rain measurements)
** Current wind speed in m/s (hover to see current wind gust speed)